^^
Lisbon, NH - Weather Station Historical Data
Daily Summary for September 13, 2021 Units:  English    Metric   Both
Daily Weekly Monthly Yearly
  High: Low: Average:
Temperature: 57.6 °F 56.6 °F 57.2 °F
Dew Point: 57.6 °F 56.6 °F 57.2 °F
Humidity: 100% 100% 100%
Wind Speed: 0mph 0mph 0mph
Wind Gust: 0mph - -
Wind- - North
Pressure: 29.93 in 29.90 in -
Precipitation: 0.01 in    
 
 
Tabular Data for September 13, 2021
Time Temperature Dew Point Pressure Wind Wind Speed Wind Gust Humidity Rainfall Rate (Hourly) solar
00:04 57.6 °F 57.6 °F 29.92 in Calm     100% 0.00 in 0 W/m2
00:09 57.6 °F 57.6 °F 29.92 in Calm     100% 0.00 in 0 W/m2
00:14 57.5 °F 57.5 °F 29.92 in Calm     100% 0.00 in 0 W/m2
00:19 57.5 °F 57.5 °F 29.91 in Calm     100% 0.00 in 0 W/m2
00:24 57.5 °F 57.5 °F 29.91 in Calm     100% 0.00 in 0 W/m2
00:29 57.5 °F 57.5 °F 29.91 in Calm     100% 0.00 in 0 W/m2
00:34 57.5 °F 57.5 °F 29.91 in Calm     100% 0.00 in 0 W/m2
00:39 57.5 °F 57.5 °F 29.91 in Calm     100% 0.00 in 0 W/m2
00:44 57.5 °F 57.5 °F 29.92 in Calm     100% 0.00 in 0 W/m2
00:49 57.5 °F 57.5 °F 29.92 in Calm     100% 0.00 in 0 W/m2
00:54 57.5 °F 57.5 °F 29.92 in Calm     100% 0.00 in 0 W/m2
00:59 57.5 °F 57.5 °F 29.93 in Calm     100% 0.00 in 0 W/m2
01:04 57.5 °F 57.5 °F 29.93 in Calm     100% 0.00 in 0 W/m2
01:09 57.5 °F 57.5 °F 29.93 in Calm     100% 0.00 in 0 W/m2
01:14 57.5 °F 57.5 °F 29.93 in Calm     100% 0.00 in 0 W/m2
01:19 57.5 °F 57.5 °F 29.92 in Calm     100% 0.00 in 0 W/m2
01:24 57.5 °F 57.5 °F 29.92 in Calm     100% 0.00 in 0 W/m2
01:29 57.5 °F 57.5 °F 29.92 in Calm     100% 0.00 in 0 W/m2
01:34 57.5 °F 57.5 °F 29.90 in Calm     100% 0.00 in 0 W/m2
01:39 57.5 °F 57.5 °F 29.90 in Calm     100% 0.00 in 0 W/m2
01:44 57.5 °F 57.5 °F 29.90 in Calm     100% 0.00 in 0 W/m2
01:49 57.5 °F 57.5 °F 29.90 in Calm     100% 0.00 in 0 W/m2
01:54 57.5 °F 57.5 °F 29.90 in Calm     100% 0.00 in 0 W/m2
01:59 57.5 °F 57.5 °F 29.91 in Calm     100% 0.00 in 0 W/m2
02:04 57.5 °F 57.5 °F 29.91 in Calm     100% 0.00 in 0 W/m2
02:09 57.5 °F 57.5 °F 29.91 in Calm     100% 0.00 in 0 W/m2
02:14 57.5 °F 57.5 °F 29.91 in Calm     100% 0.00 in 0 W/m2
02:19 57.5 °F 57.5 °F 29.91 in Calm     100% 0.00 in 0 W/m2
02:24 57.3 °F 57.3 °F 29.91 in Calm     100% 0.00 in 0 W/m2
02:29 57.3 °F 57.3 °F 29.92 in Calm     100% 0.00 in 0 W/m2
02:34 57.3 °F 57.3 °F 29.92 in Calm     100% 0.00 in 0 W/m2
02:39 57.3 °F 57.3 °F 29.92 in Calm     100% 0.00 in 0 W/m2
02:44 57.3 °F 57.3 °F 29.92 in Calm     100% 0.00 in 0 W/m2
02:49 57.3 °F 57.3 °F 29.92 in Calm     100% 0.00 in 0 W/m2
02:54 57.3 °F 57.3 °F 29.92 in Calm     100% 0.00 in 0 W/m2
02:59 57.3 °F 57.3 °F 29.92 in Calm     100% 0.00 in 0 W/m2
03:04 57.3 °F 57.3 °F 29.91 in Calm     100% 0.00 in 0 W/m2
03:09 57.2 °F 57.2 °F 29.91 in Calm     100% 0.00 in 0 W/m2
03:14 57.2 °F 57.2 °F 29.91 in Calm     100% 0.00 in 0 W/m2
03:19 57.2 °F 57.2 °F 29.90 in Calm     100% 0.00 in 0 W/m2
03:24 57.2 °F 57.2 °F 29.90 in Calm     100% 0.00 in 0 W/m2
03:29 57.2 °F 57.2 °F 29.90 in Calm     100% 0.00 in 0 W/m2
03:34 57.2 °F 57.2 °F 29.90 in Calm     100% 0.00 in 0 W/m2
03:39 57 °F 57 °F 29.90 in Calm     100% 0.00 in 0 W/m2
03:44 57 °F 57 °F 29.90 in Calm     100% 0.00 in 0 W/m2
03:49 57 °F 57 °F 29.90 in Calm     100% 0.00 in 0 W/m2
03:54 56.9 °F 56.9 °F 29.90 in Calm     100% 0.00 in 0 W/m2
03:59 56.8 °F 56.8 °F 29.90 in Calm     100% 0.00 in 0 W/m2
04:04 56.7 °F 56.7 °F 29.90 in Calm     100% 0.00 in 0 W/m2
04:09 56.7 °F 56.7 °F 29.90 in Calm     100% 0.00 in 0 W/m2
04:14 56.6 °F 56.6 °F 29.90 in Calm     100% 0.00 in 0 W/m2
04:19 56.6 °F 56.6 °F 29.90 in Calm     100% 0.00 in 0 W/m2
04:24 56.6 °F 56.6 °F 29.90 in Calm     100% 0.00 in 0 W/m2
04:29 56.6 °F 56.6 °F 29.90 in Calm     100% 0.00 in 0 W/m2
04:34 56.6 °F 56.6 °F 29.90 in Calm     100% 0.00 in 0 W/m2
04:39 56.6 °F 56.6 °F 29.90 in Calm     100% 0.00 in 0 W/m2
04:44 56.7 °F 56.7 °F 29.90 in Calm     100% 0.00 in 0 W/m2
04:49 56.7 °F 56.7 °F 29.90 in Calm     100% 0.00 in 0 W/m2
04:54 56.7 °F 56.7 °F 29.90 in Calm     100% 0.00 in 0 W/m2
04:59 56.7 °F 56.7 °F 29.90 in Calm     100% 0.00 in 0 W/m2
05:04 56.7 °F 56.7 °F 29.90 in Calm     100% 0.00 in 0 W/m2
05:09 56.9 °F 56.9 °F 29.90 in Calm     100% 0.01 in 0 W/m2
05:14 56.9 °F 56.9 °F 29.91 in Calm     100% 0.01 in 0 W/m2
05:19 56.9 °F 56.9 °F 29.91 in Calm     100% 0.01 in 0 W/m2
05:24 56.9 °F 56.9 °F 29.91 in Calm     100% 0.01 in 0 W/m2
05:29 56.9 °F 56.9 °F 29.91 in Calm     100% 0.01 in 0 W/m2
05:34 56.9 °F 56.9 °F 29.91 in Calm     100% 0.01 in 0 W/m2
05:39 56.9 °F 56.9 °F 29.91 in Calm     100% 0.01 in 0 W/m2
05:44 56.8 °F 56.8 °F 29.92 in Calm     100% 0.01 in 0 W/m2
05:49 56.7 °F 56.7 °F 29.92 in Calm     100% 0.01 in 0 W/m2
Lisbon, New Hampshire, USA
Compliments of Weather Underground - 2.75 mb